Time;durP1;ratioP1;P1;durP2;ratioP2;P2;SDS_P1;SDS_P2;PMS_P1;PMS_P2;Temp;Humidity;BMP_temperature;BMP_pressure;BME280_temperature;BME280_humidity;BME280_pressure;Samples;Min_cycle;Max_cycle;Signal;HPM_P1;HPM_P2
2022/04/16 00:00:56;;;;;;;;;;;9.00;99.90;;;;;;5063777;28;19921;-73
2022/04/16 00:03:22;;;;;;;;;;;8.90;99.90;;;;;;5063404;28;19921;-73
2022/04/16 00:05:50;;;;;;;;;;;8.90;99.90;;;;;;5063543;28;19922;-73
2022/04/16 00:08:18;;;;;;;;;;;8.80;99.90;;;;;;5063607;28;19920;-72
2022/04/16 00:10:45;;;;;;;;;;;8.80;99.90;;;;;;5063673;28;19932;-71
2022/04/16 00:13:12;;;;;;;;;;;8.70;99.90;;;;;;5063756;28;19927;-72
2022/04/16 00:15:39;;;;;;;;;;;8.80;99.90;;;;;;5061888;28;19943;-73
2022/04/16 00:18:05;;;;;;;;;;;8.70;99.90;;;;;;5062087;28;19928;-71
2022/04/16 00:20:33;;;;;;;;;;;8.70;99.90;;;;;;5062728;28;19943;-73
2022/04/16 00:23:00;;;;;;;;;;;8.50;99.90;;;;;;5063423;28;19983;-71
2022/04/16 00:25:28;;;;;;;;;;;8.40;99.90;;;;;;5063498;28;19921;-73
2022/04/16 00:27:55;;;;;;;;;;;8.40;99.90;;;;;;5063599;28;19927;-73
2022/04/16 00:30:22;;;;;;;;;;;8.50;99.90;;;;;;5063363;28;20224;-72
2022/04/16 00:32:51;;;;;;;;;;;8.40;99.90;;;;;;5063212;28;19921;-73
2022/04/16 00:35:19;;;;;;;;;;;8.40;99.90;;;;;;5063215;28;19927;-73
2022/04/16 00:37:47;;;;;;;;;;;8.40;99.90;;;;;;5063049;28;19951;-73
2022/04/16 00:40:13;;;;;;;;;;;8.40;99.90;;;;;;5063322;28;19927;-73
2022/04/16 00:42:44;;;;;;;;;;;8.40;99.90;;;;;;5063534;28;19921;-73
2022/04/16 00:45:11;;;;;;;;;;;8.30;99.90;;;;;;5063809;28;19943;-73
2022/04/16 00:47:38;;;;;;;;;;;8.30;99.90;;;;;;5062828;28;19928;-73
2022/04/16 00:50:05;;;;;;;;;;;8.30;99.90;;;;;;5062591;28;20195;-72
2022/04/16 00:52:32;;;;;;;;;;;8.30;99.90;;;;;;5063449;28;19921;-72
2022/04/16 00:54:58;;;;;;;;;;;8.30;99.90;;;;;;5063270;28;19921;-72
2022/04/16 00:57:25;;;;;;;;;;;8.40;99.90;;;;;;5062619;28;19921;-72
2022/04/16 00:59:53;;;;;;;;;;;8.40;99.90;;;;;;5062234;28;19921;-71
2022/04/16 01:02:20;;;;;;;;;;;8.50;99.90;;;;;;5062984;28;19943;-72
2022/04/16 01:04:47;;;;;;;;;;;8.50;99.90;;;;;;5062959;28;19984;-71
2022/04/16 01:07:14;;;;;;;;;;;8.60;99.90;;;;;;5062780;28;19920;-72
2022/04/16 01:09:41;;;;;;;;;;;8.60;99.90;;;;;;5063221;28;20254;-72
2022/04/16 01:12:08;;;;;;;;;;;8.60;99.90;;;;;;5065623;28;19924;-72
2022/04/16 01:14:37;;;;;;;;;;;8.60;99.90;;;;;;5067388;28;19921;-71
2022/04/16 01:17:05;;;;;;;;;;;8.70;99.90;;;;;;5066329;28;20205;-72
2022/04/16 01:19:32;;;;;;;;;;;8.80;99.90;;;;;;5066860;28;19924;-72
2022/04/16 01:21:59;;;;;;;;;;;8.80;99.90;;;;;;5067216;28;19928;-71
2022/04/16 01:24:27;;;;;;;;;;;8.80;99.90;;;;;;5066826;28;19983;-72
2022/04/16 01:26:54;;;;;;;;;;;8.80;99.90;;;;;;5066450;28;19921;-72
2022/04/16 01:29:20;;;;;;;;;;;8.80;99.90;;;;;;5066154;28;19920;-73
2022/04/16 01:31:47;;;;;;;;;;;8.80;99.90;;;;;;5066224;28;19921;-72
2022/04/16 01:34:14;;;;;;;;;;;8.80;99.90;;;;;;5066861;28;19921;-72
2022/04/16 01:36:41;;;;;;;;;;;8.70;99.90;;;;;;5066317;28;19921;-73
2022/04/16 01:39:08;;;;;;;;;;;8.80;99.90;;;;;;5066873;28;20219;-71
2022/04/16 01:41:36;;;;;;;;;;;8.90;99.90;;;;;;5066523;28;19921;-73
2022/04/16 01:44:03;;;;;;;;;;;8.80;99.90;;;;;;5065665;28;19921;-72
2022/04/16 01:46:30;;;;;;;;;;;8.90;99.90;;;;;;5066045;28;19921;-73
2022/04/16 01:48:56;;;;;;;;;;;8.90;99.90;;;;;;5066356;28;19928;-73
2022/04/16 01:51:24;;;;;;;;;;;8.90;99.90;;;;;;5066250;28;19920;-72
2022/04/16 01:53:50;;;;;;;;;;;9.00;99.90;;;;;;5066489;28;19933;-72
2022/04/16 01:56:17;;;;;;;;;;;9.00;99.90;;;;;;5065774;28;20151;-72
2022/04/16 01:58:45;;;;;;;;;;;8.90;99.90;;;;;;5065925;28;19928;-72
2022/04/16 02:01:11;;;;;;;;;;;8.90;99.90;;;;;;5066178;28;19935;-72
2022/04/16 02:03:38;;;;;;;;;;;8.90;99.90;;;;;;5065511;28;19920;-72
2022/04/16 02:06:05;;;;;;;;;;;8.90;99.90;;;;;;5065808;28;19927;-72
2022/04/16 02:08:32;;;;;;;;;;;9.00;99.90;;;;;;5066089;28;19920;-72
2022/04/16 02:10:58;;;;;;;;;;;8.90;99.90;;;;;;5065948;28;19920;-72
2022/04/16 02:13:25;;;;;;;;;;;8.90;99.90;;;;;;5065559;28;19956;-71
2022/04/16 02:15:54;;;;;;;;;;;8.80;99.90;;;;;;5065530;28;19920;-72
2022/04/16 02:18:21;;;;;;;;;;;8.80;99.90;;;;;;5089558;23;19928;-92
2022/04/16 02:20:47;;;;;;;;;;;8.80;99.90;;;;;;5090681;28;19920;-91
2022/04/16 02:23:14;;;;;;;;;;;8.90;99.90;;;;;;5090411;28;19926;-92
2022/04/16 02:25:42;;;;;;;;;;;8.80;99.90;;;;;;5091301;28;20298;-92
2022/04/16 02:28:09;;;;;;;;;;;8.90;99.90;;;;;;5091222;28;19920;-92
2022/04/16 02:30:37;;;;;;;;;;;8.90;99.90;;;;;;5092803;28;19920;-92
2022/04/16 02:33:06;;;;;;;;;;;8.80;99.90;;;;;;5092113;28;19920;-92
2022/04/16 02:35:34;;;;;;;;;;;8.80;99.90;;;;;;5091336;28;19920;-92
2022/04/16 02:38:01;;;;;;;;;;;8.80;99.90;;;;;;5091615;28;19920;-92
2022/04/16 02:40:28;;;;;;;;;;;8.80;99.90;;;;;;5091568;28;19950;-91
2022/04/16 02:42:55;;;;;;;;;;;8.80;99.90;;;;;;5091992;28;19921;-92
2022/04/16 02:48:09;;;;;;;;;;;8.80;99.90;;;;;;5091170;28;20265;-92
2022/04/16 02:50:35;;;;;;;;;;;8.80;99.90;;;;;;5090776;28;19988;-91
2022/04/16 02:53:02;;;;;;;;;;;8.80;99.90;;;;;;5091816;28;19976;-92
2022/04/16 02:55:29;;;;;;;;;;;8.70;99.90;;;;;;5090024;28;19984;-92
2022/04/16 02:57:56;;;;;;;;;;;8.70;99.90;;;;;;5090507;28;19984;-91
2022/04/16 03:00:23;;;;;;;;;;;8.70;99.90;;;;;;5091253;28;19987;-92
2022/04/16 03:02:52;;;;;;;;;;;8.70;99.90;;;;;;5089287;28;19926;-92
2022/04/16 03:05:20;;;;;;;;;;;8.60;99.90;;;;;;5090949;28;20150;-91
2022/04/16 03:07:47;;;;;;;;;;;8.60;99.90;;;;;;5091461;28;19927;-92
2022/04/16 03:10:15;;;;;;;;;;;8.60;99.90;;;;;;5091479;28;19980;-92
2022/04/16 03:12:42;;;;;;;;;;;8.60;99.90;;;;;;5091543;28;19924;-91
2022/04/16 03:17:54;;;;;;;;;;;8.60;99.90;;;;;;5090510;28;19964;-92
2022/04/16 03:20:22;;;;;;;;;;;8.60;99.90;;;;;;5090567;28;19955;-91
2022/04/16 03:22:49;;;;;;;;;;;8.60;99.90;;;;;;5090884;28;19920;-92
2022/04/16 03:25:16;;;;;;;;;;;8.60;99.90;;;;;;5096349;28;19948;-91
2022/04/16 03:27:42;;;;;;;;;;;8.60;99.90;;;;;;5096055;28;19955;-92
2022/04/16 03:30:10;;;;;;;;;;;8.60;99.90;;;;;;5092056;28;19920;-92
2022/04/16 03:32:38;;;;;;;;;;;8.70;99.90;;;;;;5092078;28;19913;-92
2022/04/16 03:35:05;;;;;;;;;;;8.60;99.90;;;;;;5091321;28;19940;-91
2022/04/16 03:37:33;;;;;;;;;;;8.60;99.90;;;;;;5092032;28;19950;-92
2022/04/16 03:39:59;;;;;;;;;;;8.60;99.90;;;;;;5091667;28;19955;-92
2022/04/16 03:42:26;;;;;;;;;;;8.60;99.90;;;;;;5075269;28;20288;-92
2022/04/16 03:44:53;;;;;;;;;;;8.60;99.90;;;;;;5071661;28;19952;-92
2022/04/16 03:47:20;;;;;;;;;;;8.60;99.90;;;;;;5070398;28;19951;-91
2022/04/16 03:49:47;;;;;;;;;;;8.60;99.90;;;;;;5070550;28;19955;-91
2022/04/16 03:52:13;;;;;;;;;;;8.80;99.90;;;;;;5083974;28;19992;-92
2022/04/16 04:00:24;;;;;;;;;;;8.60;99.90;;;;;;5067371;28;19939;-92
2022/04/16 04:02:51;;;;;;;;;;;8.60;99.90;;;;;;5069488;28;19921;-93
2022/04/16 04:05:18;;;;;;;;;;;8.60;99.90;;;;;;5080173;28;19921;-91
2022/04/16 04:07:44;;;;;;;;;;;8.60;99.90;;;;;;5090385;28;19984;-92
2022/04/16 04:10:13;;;;;;;;;;;8.60;99.90;;;;;;5090017;28;19921;-92
2022/04/16 04:12:40;;;;;;;;;;;8.60;99.90;;;;;;5089613;28;19921;-91
2022/04/16 04:15:07;;;;;;;;;;;8.60;99.90;;;;;;5090478;28;19986;-92
2022/04/16 04:17:34;;;;;;;;;;;8.60;99.90;;;;;;5092588;28;19920;-92
2022/04/16 04:20:00;;;;;;;;;;;8.60;99.90;;;;;;5091602;28;19921;-92
2022/04/16 04:22:29;;;;;;;;;;;8.50;99.90;;;;;;5089337;28;19927;-92
2022/04/16 04:24:56;;;;;;;;;;;8.60;99.90;;;;;;5089113;28;20000;-92
2022/04/16 04:27:24;;;;;;;;;;;8.50;99.90;;;;;;5089836;28;19920;-92
2022/04/16 04:29:52;;;;;;;;;;;8.50;99.90;;;;;;5088576;28;20115;-92
2022/04/16 04:32:18;;;;;;;;;;;8.50;99.90;;;;;;5089022;28;19920;-91
2022/04/16 04:34:45;;;;;;;;;;;8.50;99.90;;;;;;5089596;28;19946;-91
2022/04/16 04:37:12;;;;;;;;;;;8.50;99.90;;;;;;5088653;28;19908;-92
2022/04/16 04:39:40;;;;;;;;;;;8.40;99.90;;;;;;5089430;28;19921;-91
2022/04/16 04:42:07;;;;;;;;;;;8.50;99.90;;;;;;5089813;28;19952;-92
2022/04/16 04:44:35;;;;;;;;;;;8.50;99.90;;;;;;5089079;28;19924;-93
2022/04/16 04:47:02;;;;;;;;;;;8.50;99.90;;;;;;5089463;28;19987;-92
2022/04/16 04:49:29;;;;;;;;;;;8.50;99.90;;;;;;5090617;28;19920;-92
2022/04/16 04:51:55;;;;;;;;;;;8.50;99.90;;;;;;5090743;28;19948;-91
2022/04/16 04:54:22;;;;;;;;;;;8.60;99.90;;;;;;5090082;28;19927;-92
2022/04/16 04:56:49;;;;;;;;;;;8.60;99.90;;;;;;5089912;28;19920;-92
2022/04/16 04:59:16;;;;;;;;;;;8.50;99.90;;;;;;5089543;28;19920;-92
2022/04/16 05:01:44;;;;;;;;;;;8.50;99.90;;;;;;5088597;28;19951;-92
2022/04/16 05:04:10;;;;;;;;;;;8.60;99.90;;;;;;5088945;28;19988;-91
2022/04/16 05:06:37;;;;;;;;;;;8.50;99.90;;;;;;5088937;28;19987;-91
2022/04/16 05:09:04;;;;;;;;;;;8.40;99.90;;;;;;5088189;28;19976;-92
2022/04/16 05:11:30;;;;;;;;;;;8.40;99.90;;;;;;5087013;28;19999;-92
2022/04/16 05:13:57;;;;;;;;;;;8.40;99.90;;;;;;5087094;28;19983;-91
2022/04/16 05:16:24;;;;;;;;;;;8.40;99.90;;;;;;5078118;28;19921;-92
2022/04/16 05:18:52;;;;;;;;;;;8.40;99.90;;;;;;5066855;28;19976;-91
2022/04/16 05:21:19;;;;;;;;;;;8.30;99.90;;;;;;5067430;28;20115;-92
2022/04/16 05:23:45;;;;;;;;;;;8.30;99.90;;;;;;5086556;28;19991;-92
2022/04/16 05:26:12;;;;;;;;;;;8.20;99.90;;;;;;5087251;28;20167;-92
2022/04/16 05:28:39;;;;;;;;;;;8.10;99.90;;;;;;5086484;28;19980;-91
2022/04/16 05:31:07;;;;;;;;;;;8.10;99.90;;;;;;5087168;28;19921;-92
2022/04/16 05:36:20;;;;;;;;;;;8.10;99.90;;;;;;5087119;28;19939;-91
2022/04/16 05:38:46;;;;;;;;;;;8.10;99.90;;;;;;5087124;28;19908;-91
2022/04/16 05:41:13;;;;;;;;;;;8.00;99.90;;;;;;5086616;28;19921;-91
2022/04/16 05:43:39;;;;;;;;;;;8.00;99.90;;;;;;5086814;28;19926;-91
2022/04/16 05:46:06;;;;;;;;;;;7.90;99.90;;;;;;5070369;28;19988;-91
2022/04/16 05:48:33;;;;;;;;;;;7.90;99.90;;;;;;5064314;28;19952;-91
2022/04/16 05:51:00;;;;;;;;;;;7.80;99.90;;;;;;5070837;28;19925;-91
2022/04/16 05:53:28;;;;;;;;;;;7.90;99.90;;;;;;5085481;28;19955;-91
2022/04/16 05:55:54;;;;;;;;;;;7.90;99.90;;;;;;5085044;28;19927;-91
2022/04/16 05:58:21;;;;;;;;;;;8.20;99.90;;;;;;5070101;28;20115;-91
2022/04/16 06:00:48;;;;;;;;;;;7.90;99.90;;;;;;5082697;28;19991;-91
2022/04/16 06:03:15;;;;;;;;;;;7.90;99.90;;;;;;5088584;28;19920;-91
2022/04/16 06:05:41;;;;;;;;;;;7.80;99.90;;;;;;5088553;28;20003;-91
2022/04/16 06:08:08;;;;;;;;;;;7.80;99.90;;;;;;5088504;28;19968;-90
2022/04/16 06:10:37;;;;;;;;;;;7.80;99.90;;;;;;5088970;28;20287;-91
2022/04/16 06:13:04;;;;;;;;;;;7.70;99.90;;;;;;5089680;28;19921;-91
2022/04/16 06:15:31;;;;;;;;;;;7.70;99.90;;;;;;5090541;28;19981;-91
2022/04/16 06:17:58;;;;;;;;;;;7.70;99.90;;;;;;5089836;28;20187;-91
2022/04/16 06:20:25;;;;;;;;;;;7.80;99.90;;;;;;5088802;28;19966;-91
2022/04/16 06:22:52;;;;;;;;;;;7.80;99.90;;;;;;5088964;28;19921;-91
2022/04/16 06:25:19;;;;;;;;;;;7.80;99.90;;;;;;5090071;28;19942;-92
2022/04/16 06:27:47;;;;;;;;;;;7.70;99.90;;;;;;5088799;28;20118;-91
2022/04/16 06:30:28;;;;;;;;;;;7.60;99.90;;;;;;5086918;28;19979;-91
2022/04/16 06:32:55;;;;;;;;;;;7.60;99.90;;;;;;5089771;28;19920;-92
2022/04/16 06:35:21;;;;;;;;;;;7.60;99.90;;;;;;5089163;28;20254;-91
2022/04/16 06:37:48;;;;;;;;;;;7.80;99.90;;;;;;5090672;28;19920;-92
2022/04/16 06:40:16;;;;;;;;;;;7.60;99.90;;;;;;5090442;28;20118;-92
2022/04/16 06:42:43;;;;;;;;;;;7.60;99.90;;;;;;5090839;28;19920;-91
2022/04/16 06:45:12;;;;;;;;;;;7.60;99.90;;;;;;5091598;28;19980;-91
2022/04/16 06:47:39;;;;;;;;;;;7.60;99.90;;;;;;5091598;28;19940;-92
2022/04/16 06:50:06;;;;;;;;;;;7.60;99.90;;;;;;5090242;28;19944;-92
2022/04/16 06:52:33;;;;;;;;;;;7.50;99.90;;;;;;5090427;28;20283;-92
2022/04/16 06:55:00;;;;;;;;;;;7.50;99.90;;;;;;5089860;28;20314;-92
2022/04/16 06:57:26;;;;;;;;;;;7.50;99.90;;;;;;5088112;28;20101;-91
2022/04/16 06:59:59;;;;;;;;;;;7.50;99.90;;;;;;5090346;28;19926;-90
2022/04/16 07:02:27;;;;;;;;;;;7.50;99.90;;;;;;5088325;28;19987;-91
2022/04/16 07:04:54;;;;;;;;;;;7.50;99.90;;;;;;5087916;28;20011;-92
2022/04/16 07:07:21;;;;;;;;;;;7.60;99.90;;;;;;5087358;28;20115;-91
2022/04/16 07:09:47;;;;;;;;;;;7.60;99.90;;;;;;5085361;28;19932;-92
2022/04/16 07:12:14;;;;;;;;;;;7.70;99.90;;;;;;5086915;28;19983;-92
2022/04/16 07:14:41;;;;;;;;;;;7.80;99.90;;;;;;5087383;28;19984;-91
2022/04/16 07:17:08;;;;;;;;;;;7.80;99.90;;;;;;5087278;28;19927;-91
2022/04/16 07:19:38;;;;;;;;;;;7.80;99.90;;;;;;5068057;28;22427;-91
2022/04/16 07:22:05;;;;;;;;;;;7.90;99.90;;;;;;5085718;28;20168;-92
2022/04/16 07:24:32;;;;;;;;;;;7.90;99.90;;;;;;5087443;28;20124;-91
2022/04/16 07:26:59;;;;;;;;;;;7.90;99.90;;;;;;5086807;28;20284;-92
2022/04/16 07:29:26;;;;;;;;;;;7.90;99.90;;;;;;5087559;28;19959;-91
2022/04/16 07:31:53;;;;;;;;;;;7.90;99.90;;;;;;5086134;28;19987;-91
2022/04/16 07:34:20;;;;;;;;;;;7.90;99.90;;;;;;5087304;28;19971;-91
2022/04/16 07:36:48;;;;;;;;;;;7.90;99.90;;;;;;5090389;22;19988;-65
2022/04/16 07:39:15;;;;;;;;;;;8.00;99.90;;;;;;5043080;28;19925;-67
2022/04/16 07:41:42;;;;;;;;;;;8.00;99.90;;;;;;5059030;28;19925;-67
2022/04/16 07:44:09;;;;;;;;;;;8.00;99.90;;;;;;5062320;28;20307;-67
2022/04/16 07:46:36;;;;;;;;;;;8.10;99.90;;;;;;5063518;28;19921;-68
2022/04/16 07:49:03;;;;;;;;;;;8.20;99.90;;;;;;5063484;28;20159;-67
2022/04/16 07:51:30;;;;;;;;;;;8.30;99.90;;;;;;5064031;28;19928;-68
2022/04/16 07:53:58;;;;;;;;;;;8.30;99.90;;;;;;5063934;28;19943;-68
2022/04/16 07:56:25;;;;;;;;;;;8.20;99.90;;;;;;5063932;28;19921;-67
2022/04/16 07:58:53;;;;;;;;;;;8.10;99.90;;;;;;5063805;28;19921;-68
2022/04/16 08:01:20;;;;;;;;;;;8.10;99.90;;;;;;5063420;28;20223;-68
2022/04/16 08:03:47;;;;;;;;;;;8.20;99.90;;;;;;5064117;28;19920;-67
2022/04/16 08:06:13;;;;;;;;;;;8.20;99.90;;;;;;5063484;28;20212;-67
2022/04/16 08:08:40;;;;;;;;;;;8.30;99.90;;;;;;5063551;28;19921;-67
2022/04/16 08:11:08;;;;;;;;;;;8.20;99.90;;;;;;5064042;28;19921;-69
2022/04/16 08:13:34;;;;;;;;;;;8.20;99.90;;;;;;5063721;28;20115;-68
2022/04/16 08:16:01;;;;;;;;;;;8.20;99.90;;;;;;5062812;28;19921;-67
2022/04/16 08:18:27;;;;;;;;;;;8.30;99.90;;;;;;5065141;22;19922;-65
2022/04/16 08:20:54;;;;;;;;;;;8.20;99.90;;;;;;5037238;28;19928;-67
2022/04/16 08:23:21;;;;;;;;;;;8.20;99.90;;;;;;5029693;28;20013;-67
2022/04/16 08:25:47;;;;;;;;;;;8.10;99.90;;;;;;5038040;28;19921;-68
2022/04/16 08:28:15;;;;;;;;;;;8.00;99.90;;;;;;5043831;28;19921;-67
2022/04/16 08:30:42;;;;;;;;;;;8.00;99.90;;;;;;5041449;28;19929;-67
2022/04/16 08:33:13;;;;;;;;;;;7.90;99.90;;;;;;5043589;28;19979;-67
2022/04/16 08:35:42;;;;;;;;;;;7.90;99.90;;;;;;5043258;28;19921;-67
2022/04/16 08:38:10;;;;;;;;;;;8.00;99.90;;;;;;5043000;28;19967;-67
2022/04/16 08:40:36;;;;;;;;;;;8.00;99.90;;;;;;5043185;28;19984;-67
2022/04/16 08:43:03;;;;;;;;;;;8.00;99.90;;;;;;5042857;28;19927;-68
2022/04/16 08:45:32;;;;;;;;;;;8.00;99.90;;;;;;5041179;28;19943;-67
2022/04/16 08:47:59;;;;;;;;;;;8.00;99.90;;;;;;5054173;28;19954;-67
2022/04/16 08:50:25;;;;;;;;;;;8.00;99.90;;;;;;5042152;28;19928;-67
2022/04/16 08:52:52;;;;;;;;;;;8.10;99.90;;;;;;5026459;28;19927;-68
2022/04/16 08:55:19;;;;;;;;;;;8.20;99.90;;;;;;5042891;28;19921;-67
2022/04/16 08:57:45;;;;;;;;;;;8.30;99.90;;;;;;5048469;28;19929;-68
2022/04/16 09:00:14;;;;;;;;;;;8.30;99.90;;;;;;5043188;28;20152;-68
2022/04/16 09:02:51;;;;;;;;;;;8.30;99.90;;;;;;5043474;28;19921;-67
2022/04/16 09:05:19;;;;;;;;;;;8.20;99.90;;;;;;5041309;28;20120;-67
2022/04/16 09:07:46;;;;;;;;;;;8.10;99.90;;;;;;5042824;28;19928;-67
2022/04/16 09:10:13;;;;;;;;;;;8.10;99.90;;;;;;5033965;28;19921;-67
2022/04/16 09:12:40;;;;;;;;;;;8.10;99.90;;;;;;5031205;28;19928;-67
2022/04/16 09:15:07;;;;;;;;;;;8.10;99.90;;;;;;5043202;28;19928;-67
2022/04/16 09:17:34;;;;;;;;;;;8.20;99.90;;;;;;5042774;28;19947;-67
2022/04/16 09:20:02;;;;;;;;;;;8.20;99.90;;;;;;5042553;28;19929;-67
2022/04/16 09:22:32;;;;;;;;;;;8.20;99.90;;;;;;5042844;28;20224;-67
2022/04/16 09:24:59;;;;;;;;;;;8.20;99.90;;;;;;5044295;28;19925;-66
2022/04/16 09:27:26;;;;;;;;;;;8.20;99.90;;;;;;5042518;28;20205;-66
2022/04/16 09:29:53;;;;;;;;;;;8.20;99.90;;;;;;5042537;28;19925;-66
2022/04/16 09:32:23;;;;;;;;;;;8.20;99.90;;;;;;5043981;28;19921;-66
2022/04/16 09:34:50;;;;;;;;;;;8.20;99.90;;;;;;5046732;28;19952;-66
2022/04/16 09:37:18;;;;;;;;;;;8.10;99.90;;;;;;5046335;28;19927;-66
2022/04/16 09:39:44;;;;;;;;;;;8.10;99.90;;;;;;5043767;28;19927;-66
2022/04/16 09:42:11;;;;;;;;;;;8.10;99.90;;;;;;5046717;28;19960;-66
2022/04/16 09:44:38;;;;;;;;;;;8.10;99.90;;;;;;5046767;28;19921;-66
2022/04/16 09:47:04;;;;;;;;;;;8.10;99.90;;;;;;5030933;28;19921;-67
2022/04/16 09:49:33;;;;;;;;;;;8.30;99.90;;;;;;5061794;28;19921;-66
2022/04/16 09:52:01;;;;;;;;;;;8.40;99.90;;;;;;5047152;28;19940;-67
2022/04/16 09:54:29;;;;;;;;;;;8.60;99.90;;;;;;5046286;28;19921;-66
2022/04/16 09:56:59;;;;;;;;;;;8.60;99.90;;;;;;5041413;28;19933;-68
2022/04/16 09:59:27;;;;;;;;;;;8.80;99.90;;;;;;5041098;28;19921;-66
2022/04/16 10:01:54;;;;;;;;;;;9.10;99.90;;;;;;5054683;28;19936;-67
2022/04/16 10:04:21;;;;;;;;;;;9.20;99.90;;;;;;5055186;28;20208;-67
2022/04/16 10:06:49;;;;;;;;;;;9.40;99.90;;;;;;5045785;28;19959;-67
2022/04/16 10:09:17;;;;;;;;;;;9.30;99.90;;;;;;5046133;28;19964;-67
2022/04/16 10:14:34;;;;;;;;;;;9.30;99.90;;;;;;5049469;28;19928;-67
2022/04/16 10:17:07;;;;;;;;;;;9.40;99.90;;;;;;5050598;28;19937;-67
2022/04/16 10:19:40;;;;;;;;;;;9.40;99.90;;;;;;5051968;28;19921;-67
2022/04/16 10:22:06;;;;;;;;;;;9.50;99.90;;;;;;5053824;28;19921;-67
2022/04/16 10:24:33;;;;;;;;;;;9.50;99.90;;;;;;5054268;28;19922;-67
2022/04/16 10:27:08;;;;;;;;;;;9.60;99.90;;;;;;5051067;28;19929;-67
2022/04/16 10:29:35;;;;;;;;;;;9.60;99.90;;;;;;5045471;28;20105;-64
2022/04/16 10:32:02;;;;;;;;;;;9.60;99.90;;;;;;5044554;28;19932;-64
2022/04/16 10:34:30;;;;;;;;;;;9.70;99.90;;;;;;5046346;28;19921;-64
2022/04/16 10:36:56;;;;;;;;;;;9.90;99.90;;;;;;5026200;28;19921;-64
2022/04/16 10:39:24;;;;;;;;;;;10.10;99.90;;;;;;5028660;28;20180;-64
2022/04/16 10:41:55;;;;;;;;;;;10.30;99.90;;;;;;5046602;28;19967;-64
2022/04/16 10:44:23;;;;;;;;;;;10.40;99.90;;;;;;5046730;28;20107;-65
2022/04/16 10:46:50;;;;;;;;;;;10.50;99.90;;;;;;5045475;28;19928;-64
2022/04/16 10:49:18;;;;;;;;;;;10.60;99.90;;;;;;5037871;28;19921;-64
2022/04/16 10:51:45;;;;;;;;;;;10.70;99.90;;;;;;5038459;28;20230;-65
2022/04/16 10:54:12;;;;;;;;;;;10.90;99.90;;;;;;5044046;28;19929;-65
2022/04/16 10:56:40;;;;;;;;;;;11.20;99.90;;;;;;5042270;28;20231;-65
2022/04/16 10:59:07;;;;;;;;;;;11.30;99.90;;;;;;5034327;28;19921;-65
2022/04/16 11:01:35;;;;;;;;;;;11.50;99.90;;;;;;5045255;28;19921;-64
2022/04/16 11:04:12;;;;;;;;;;;11.60;99.90;;;;;;5050709;28;19928;-65
2022/04/16 11:06:42;;;;;;;;;;;11.70;99.90;;;;;;5029713;28;19926;-64
2022/04/16 11:09:11;;;;;;;;;;;11.60;99.90;;;;;;5028755;28;19921;-66
2022/04/16 11:11:39;;;;;;;;;;;11.80;99.90;;;;;;5029053;28;19928;-66
2022/04/16 11:14:08;;;;;;;;;;;11.80;99.90;;;;;;5023712;28;19921;-66
2022/04/16 11:16:44;;;;;;;;;;;11.90;99.90;;;;;;5031868;28;19988;-66
2022/04/16 11:19:15;;;;;;;;;;;11.90;99.90;;;;;;5044462;28;19928;-66
2022/04/16 11:21:42;;;;;;;;;;;12.10;99.90;;;;;;5044693;28;19956;-66
2022/04/16 11:24:09;;;;;;;;;;;12.30;99.80;;;;;;5044970;28;19928;-67
2022/04/16 11:34:53;;;;;;;;;;;12.60;92.70;;;;;;5044366;28;19967;-67
2022/04/16 11:37:20;;;;;;;;;;;12.60;94.40;;;;;;5044341;28;19921;-67
2022/04/16 11:39:48;;;;;;;;;;;12.80;95.80;;;;;;5044113;28;19921;-66
2022/04/16 11:42:15;;;;;;;;;;;12.90;95.20;;;;;;5044615;28;19921;-68
2022/04/16 11:44:42;;;;;;;;;;;13.10;95.60;;;;;;5044474;28;19921;-67
2022/04/16 11:47:11;;;;;;;;;;;13.00;94.30;;;;;;5044085;28;19921;-66
2022/04/16 11:49:38;;;;;;;;;;;13.00;95.20;;;;;;5039645;28;19921;-67
2022/04/16 11:52:05;;;;;;;;;;;13.00;93.60;;;;;;5024560;28;19928;-67
2022/04/16 11:54:32;;;;;;;;;;;13.20;92.50;;;;;;5023778;28;19922;-67
2022/04/16 11:56:59;;;;;;;;;;;13.50;92.70;;;;;;5029491;28;19925;-67
2022/04/16 11:59:26;;;;;;;;;;;13.60;93.40;;;;;;5044147;28;19921;-67
2022/04/16 12:02:06;;;;;;;;;;;13.50;91.70;;;;;;5044025;28;20139;-67
2022/04/16 12:04:35;;;;;;;;;;;13.70;92.10;;;;;;5043784;28;19941;-67
2022/04/16 12:07:02;;;;;;;;;;;13.70;92.10;;;;;;5046044;28;19927;-67
2022/04/16 12:09:31;;;;;;;;;;;13.80;90.90;;;;;;5054261;28;19921;-67
2022/04/16 12:12:00;;;;;;;;;;;13.90;89.00;;;;;;5043704;28;20208;-65
2022/04/16 12:14:26;;;;;;;;;;;13.80;85.60;;;;;;5043900;28;19925;-67
2022/04/16 12:16:58;;;;;;;;;;;13.80;87.40;;;;;;5043305;28;20216;-68
2022/04/16 12:19:24;;;;;;;;;;;14.00;87.60;;;;;;5043761;28;19925;-67
2022/04/16 12:22:02;;;;;;;;;;;14.00;82.20;;;;;;5041957;28;19967;-67
2022/04/16 12:24:29;;;;;;;;;;;14.00;83.60;;;;;;5043471;28;19921;-66
2022/04/16 12:26:56;;;;;;;;;;;14.10;81.20;;;;;;5041339;28;20200;-67
2022/04/16 12:29:26;;;;;;;;;;;14.10;77.50;;;;;;5043100;28;19932;-67
2022/04/16 12:31:56;;;;;;;;;;;14.00;80.50;;;;;;5042586;28;19971;-67
2022/04/16 12:34:22;;;;;;;;;;;14.10;78.50;;;;;;5042868;28;19944;-67
2022/04/16 12:36:49;;;;;;;;;;;14.50;82.90;;;;;;5043486;28;20107;-67
2022/04/16 12:39:17;;;;;;;;;;;14.80;77.30;;;;;;5041989;28;19921;-66
2022/04/16 12:41:43;;;;;;;;;;;14.90;73.10;;;;;;5043549;28;20166;-67
2022/04/16 12:44:10;;;;;;;;;;;14.90;73.90;;;;;;5052766;28;19929;-67
2022/04/16 12:46:37;;;;;;;;;;;14.90;75.20;;;;;;5043331;28;19928;-68
2022/04/16 12:49:04;;;;;;;;;;;14.90;75.70;;;;;;5048190;28;19921;-66
2022/04/16 12:51:36;;;;;;;;;;;14.80;75.90;;;;;;5042706;28;19921;-69
2022/04/16 12:54:02;;;;;;;;;;;14.60;74.40;;;;;;5044660;28;19921;-66
2022/04/16 12:56:30;;;;;;;;;;;14.50;73.00;;;;;;5043220;28;19921;-68
2022/04/16 12:58:57;;;;;;;;;;;14.60;73.50;;;;;;5043099;28;19921;-68
2022/04/16 13:01:23;;;;;;;;;;;14.80;71.80;;;;;;5042877;28;19928;-68
2022/04/16 13:03:50;;;;;;;;;;;14.90;69.00;;;;;;5042992;28;19921;-68
2022/04/16 13:06:18;;;;;;;;;;;15.10;68.50;;;;;;5043678;28;19921;-67
2022/04/16 13:08:45;;;;;;;;;;;15.00;71.30;;;;;;5034443;28;19921;-66
2022/04/16 13:11:12;;;;;;;;;;;15.40;70.80;;;;;;5047140;28;20235;-67
2022/04/16 13:13:41;;;;;;;;;;;15.30;68.90;;;;;;5047457;28;19921;-67
2022/04/16 13:16:07;;;;;;;;;;;15.30;70.10;;;;;;5055649;28;20669;-68
2022/04/16 13:18:34;;;;;;;;;;;15.40;67.90;;;;;;5046505;28;19943;-67
2022/04/16 13:21:04;;;;;;;;;;;15.50;70.10;;;;;;5046698;28;19928;-64
2022/04/16 13:23:31;;;;;;;;;;;15.70;73.60;;;;;;5065117;28;19921;-67
2022/04/16 13:26:00;;;;;;;;;;;16.00;68.80;;;;;;5062547;28;19921;-67
2022/04/16 13:28:28;;;;;;;;;;;16.30;68.20;;;;;;5049254;28;19921;-66
2022/04/16 13:30:57;;;;;;;;;;;16.20;67.40;;;;;;5047913;28;19929;-65
2022/04/16 13:33:24;;;;;;;;;;;16.00;69.70;;;;;;5047526;28;20235;-65
2022/04/16 13:35:51;;;;;;;;;;;15.90;69.90;;;;;;5046113;28;19928;-65
2022/04/16 13:38:17;;;;;;;;;;;16.00;70.60;;;;;;5046753;28;19992;-65
2022/04/16 13:43:29;;;;;;;;;;;16.00;70.70;;;;;;5047495;28;19923;-65
2022/04/16 13:45:57;;;;;;;;;;;15.80;70.50;;;;;;5045531;28;20284;-66
2022/04/16 13:48:25;;;;;;;;;;;15.60;69.10;;;;;;5049245;28;19947;-65
2022/04/16 13:50:54;;;;;;;;;;;15.70;70.50;;;;;;5041466;28;20267;-65
2022/04/16 13:53:23;;;;;;;;;;;15.80;72.10;;;;;;5059449;28;20229;-66
2022/04/16 13:55:50;;;;;;;;;;;16.10;69.70;;;;;;5038179;28;20175;-65
2022/04/16 13:58:16;;;;;;;;;;;16.40;70.00;;;;;;5046798;28;19929;-65
2022/04/16 14:00:43;;;;;;;;;;;16.40;69.10;;;;;;5050742;28;19927;-65
2022/04/16 14:03:11;;;;;;;;;;;16.20;71.10;;;;;;5054243;28;19952;-65
2022/04/16 14:05:43;;;;;;;;;;;15.90;72.20;;;;;;5055831;28;19920;-66
2022/04/16 14:08:12;;;;;;;;;;;15.70;72.40;;;;;;5047297;28;19935;-67
2022/04/16 14:10:40;;;;;;;;;;;15.70;72.20;;;;;;5048619;28;19921;-67
2022/04/16 14:13:06;;;;;;;;;;;15.80;74.80;;;;;;5043163;28;19951;-67
2022/04/16 14:15:33;;;;;;;;;;;16.10;76.30;;;;;;5044718;28;19929;-67
2022/04/16 14:18:00;;;;;;;;;;;16.20;73.30;;;;;;5044713;28;20124;-66
2022/04/16 14:20:28;;;;;;;;;;;16.20;73.30;;;;;;5045844;28;19920;-67
2022/04/16 14:22:55;;;;;;;;;;;16.40;74.00;;;;;;5056630;28;19955;-66
2022/04/16 14:25:22;;;;;;;;;;;16.50;71.30;;;;;;5044742;28;19936;-67
2022/04/16 14:27:49;;;;;;;;;;;16.30;74.30;;;;;;5045638;28;19945;-67
2022/04/16 14:30:15;;;;;;;;;;;16.60;71.80;;;;;;5041378;28;19968;-67
2022/04/16 14:32:42;;;;;;;;;;;16.40;73.60;;;;;;5045923;28;19925;-67
2022/04/16 14:35:10;;;;;;;;;;;16.50;72.70;;;;;;5037294;28;19921;-67
2022/04/16 14:37:38;;;;;;;;;;;16.80;71.70;;;;;;5038813;28;19922;-65
2022/04/16 14:40:05;;;;;;;;;;;16.50;73.10;;;;;;5039952;28;19921;-67
2022/04/16 14:42:32;;;;;;;;;;;16.20;70.90;;;;;;5046070;28;19980;-67
2022/04/16 14:44:58;;;;;;;;;;;16.30;73.40;;;;;;5044982;28;19927;-67
2022/04/16 14:47:25;;;;;;;;;;;16.20;71.50;;;;;;5044363;28;20283;-67
2022/04/16 14:49:52;;;;;;;;;;;16.20;72.20;;;;;;5044840;28;20139;-67
2022/04/16 14:52:18;;;;;;;;;;;16.20;73.10;;;;;;5044722;28;19980;-68
2022/04/16 14:54:46;;;;;;;;;;;16.00;70.80;;;;;;5044705;28;19936;-67